SYF weather

Cheyenne County Municipal Airport
St Francis, Kansas, United States

Public forecast

Using degrees Fahrenheit for public forecast. Weather courtesy of forecast.io.

Current aviation weather report (METAR) for Cheyenne County Municipal Airport

Retrieved 2020/04/10 01:35 UTC (8 minutes ago):

KSYF 100135Z AUTO 10005KT 10SM CLR 08/M06 A3009 RMK AO2 T00801057 PWINO

Closest aviation forecast (TAF) to Cheyenne County Municipal Airport

Closest forecast is Renner Field-Goodland Municipal Airport, 23.9 nm (44.2 km) S. Retrieved 2020-04-10 00:22 UTC (1 hour ago):

TAF KGLD 092320Z 1000/1024 01009KT P6SM OVC070 FM100200 08006KT P6SM FEW250 FM100700 14008KT P6SM FEW150 FM101100 17012KT P6SM SCT130 FM101500 20017G25KT P6SM FEW200